Wytheville, VA

10:16 PM EST on November 27, 2014 (GMT -0500)
jimmys weather | Change Station
CLOSE
Current Station
Personal Weather Station
Location: Wytheville, VA
Elevation: 2228 ft
Nearby Weather Stations
Active Advisory: Special Statement

Elev 2228 ft 36.93 °N, 81.12 °W | Updated 46 seconds ago

Overcast
Overcast
27.0 °F
Feels Like 27 °F
N
2.7
Wind Variable Wind from WNW

Today
High -- | Low -- °F
--% Chance of Precip.
Yesterday
High -- | Low -- °F
Precip. -- in
7:15 AM 5:09 PM
Waxing Crescent, 35% visible
Pressure 30.25 in
Visibility 10.0 miles
Clouds Overcast 2500 ft
Windchill 27 °F
Dew Point 20 °F
Humidity 73%
Rainfall 0.09 in
Snow Depth Not available.
UV 0 out of 12
Pollen .10 out of 12
Air Quality Not available.
Flu Activity Not available.
METAR KMKJ 280255Z AUTO 27012G16KT 10SM -SN OVC025 M02/M08 A3025 RMK AO2 T10241076

More Conditions Fewer Conditions

Pressure 30.25 in
Visibility 10.0 miles
Clouds Overcast 2500 ft
Windchill 27 °F
Dew Point 20 °F
Humidity 73%
Rainfall 0.09 in
Snow Depth Not available.
UV 0 out of 12
Pollen .10 out of 12
Air Quality Not available.
Flu Activity Not available.
METAR KMKJ 280255Z AUTO 27012G16KT 10SM -SN OVC025 M02/M08 A3025 RMK AO2 T10241076

More Conditions Fewer Conditions

10-Day Weather Forecast

Almanac

Astronomy

Nov. 27, 2014 Rise Set
Actual Time
Civil Twilight
Nautical Twilight
Astronomical Twilight
Moon
Length of Visible Light
Length of Day
Tomorrow will be .
, % of the Moon is Illuminated

Today's Extremes

State Highs State Lows

Community

WunderPhotos

Upload Photos

1,774,168 photos uploaded!

WunderBlogs® & News

Nearby

Air Quality

  Air Quality AQ Index Pollutant
Not available.

Snow Depth

Station Depth Elevation

Earthquake Activity

City Distance Mag. Time & Date
Minimum magnitude displayed is 2.5.

Coastal Water Temperatures

Place Temperature

Nearby Weather Stations